sensor_id;sensor_type;location;lat;lon;timestamp;pressure;altitude;pressure_sealevel;temperature;humidity
58927;BME280;44712;52.530;9.760;2022-07-29T00:02:14;101333.97;;;13.85;64.17
58927;BME280;44712;52.530;9.760;2022-07-29T00:04:41;101328.59;;;13.82;63.92
58927;BME280;44712;52.530;9.760;2022-07-29T00:07:09;101318.72;;;13.77;63.69
58927;BME280;44712;52.530;9.760;2022-07-29T00:09:37;101318.72;;;13.77;63.79
58927;BME280;44712;52.530;9.760;2022-07-29T00:12:17;101317.84;;;13.75;64.33
58927;BME280;44712;52.530;9.760;2022-07-29T00:14:52;101306.06;;;13.74;64.49
58927;BME280;44712;52.530;9.760;2022-07-29T00:17:18;101304.25;;;13.75;64.54
58927;BME280;44712;52.530;9.760;2022-07-29T00:19:45;101297.97;;;13.71;64.71
58927;BME280;44712;52.530;9.760;2022-07-29T00:22:12;101309.75;;;13.71;64.21
58927;BME280;44712;52.530;9.760;2022-07-29T00:24:38;101294.38;;;13.69;64.80
58927;BME280;44712;52.530;9.760;2022-07-29T00:27:05;101291.63;;;13.70;64.62
58927;BME280;44712;52.530;9.760;2022-07-29T00:29:32;101282.53;;;13.71;64.61
58927;BME280;44712;52.530;9.760;2022-07-29T00:32:01;101280.75;;;13.70;65.11
58927;BME280;44712;52.530;9.760;2022-07-29T00:34:29;101288.00;;;13.71;64.84
58927;BME280;44712;52.530;9.760;2022-07-29T00:37:19;101279.84;;;13.70;64.81
58927;BME280;44712;52.530;9.760;2022-07-29T00:39:45;101278.94;;;13.69;64.93
58927;BME280;44712;52.530;9.760;2022-07-29T00:42:12;101288.06;;;13.65;65.14
58927;BME280;44712;52.530;9.760;2022-07-29T00:44:40;101282.63;;;13.65;65.07
58927;BME280;44712;52.530;9.760;2022-07-29T00:47:09;101281.75;;;13.65;65.26
58927;BME280;44712;52.530;9.760;2022-07-29T00:49:41;101278.16;;;13.64;65.34
58927;BME280;44712;52.530;9.760;2022-07-29T00:52:10;101283.53;;;13.67;65.55
58927;BME280;44712;52.530;9.760;2022-07-29T00:54:39;101285.31;;;13.68;64.73
58927;BME280;44712;52.530;9.760;2022-07-29T00:57:10;101286.25;;;13.67;64.60
58927;BME280;44712;52.530;9.760;2022-07-29T00:59:37;101277.19;;;13.65;64.42
58927;BME280;44712;52.530;9.760;2022-07-29T01:02:04;101278.97;;;13.68;64.36
58927;BME280;44712;52.530;9.760;2022-07-29T01:04:31;101279.88;;;13.68;64.70
58927;BME280;44712;52.530;9.760;2022-07-29T01:07:00;101268.09;;;13.68;64.09
58927;BME280;44712;52.530;9.760;2022-07-29T01:09:29;101266.22;;;13.71;64.23
58927;BME280;44712;52.530;9.760;2022-07-29T01:12:15;101264.50;;;13.67;64.29
58927;BME280;44712;52.530;9.760;2022-07-29T01:14:43;101266.28;;;13.68;63.73
58927;BME280;44712;52.530;9.760;2022-07-29T01:17:12;101266.28;;;13.68;63.24
58927;BME280;44712;52.530;9.760;2022-07-29T01:22:53;101257.19;;;13.69;63.66
58927;BME280;44712;52.530;9.760;2022-07-29T01:31:19;101247.16;;;13.73;64.12
58927;BME280;44712;52.530;9.760;2022-07-29T01:34:00;101248.91;;;13.76;63.94
58927;BME280;44712;52.530;9.760;2022-07-29T01:36:43;101240.75;;;13.76;64.08
58927;BME280;44712;52.530;9.760;2022-07-29T01:39:19;101242.56;;;13.77;63.99
58927;BME280;44712;52.530;9.760;2022-07-29T01:44:32;101234.47;;;13.72;64.45
58927;BME280;44712;52.530;9.760;2022-07-29T01:47:05;101229.94;;;13.72;64.26
58927;BME280;44712;52.530;9.760;2022-07-29T01:49:36;101228.06;;;13.75;64.21
58927;BME280;44712;52.530;9.760;2022-07-29T01:52:13;101229.91;;;13.74;64.67
58927;BME280;44712;52.530;9.760;2022-07-29T01:54:57;101233.56;;;13.73;64.70
58927;BME280;44712;52.530;9.760;2022-07-29T01:57:28;101226.28;;;13.75;64.27
58927;BME280;44712;52.530;9.760;2022-07-29T01:59:59;101231.75;;;13.73;64.83
58927;BME280;44712;52.530;9.760;2022-07-29T02:02:39;101227.22;;;13.72;64.83
58927;BME280;44712;52.530;9.760;2022-07-29T02:05:07;101229.03;;;13.72;64.53
58927;BME280;44712;52.530;9.760;2022-07-29T02:07:37;101228.16;;;13.71;64.68
58927;BME280;44712;52.530;9.760;2022-07-29T02:10:06;101228.16;;;13.71;64.51
58927;BME280;44712;52.530;9.760;2022-07-29T02:12:35;101219.09;;;13.69;64.50
58927;BME280;44712;52.530;9.760;2022-07-29T02:15:06;101211.81;;;13.71;64.44
58927;BME280;44712;52.530;9.760;2022-07-29T02:17:45;101217.34;;;13.68;64.42
58927;BME280;44712;52.530;9.760;2022-07-29T02:20:22;101212.72;;;13.72;64.74
58927;BME280;44712;52.530;9.760;2022-07-29T02:22:51;101222.63;;;13.75;64.32
58927;BME280;44712;52.530;9.760;2022-07-29T02:25:18;101210.81;;;13.77;64.06
58927;BME280;44712;52.530;9.760;2022-07-29T02:27:49;101210.78;;;13.79;64.12
58927;BME280;44712;52.530;9.760;2022-07-29T02:30:18;101204.34;;;13.83;64.10
58927;BME280;44712;52.530;9.760;2022-07-29T02:32:48;101193.47;;;13.83;64.06
58927;BME280;44712;52.530;9.760;2022-07-29T02:35:16;101195.25;;;13.84;63.74
58927;BME280;44712;52.530;9.760;2022-07-29T02:37:44;101199.78;;;13.85;64.33
58927;BME280;44712;52.530;9.760;2022-07-29T02:40:34;101194.34;;;13.85;64.52
58927;BME280;44712;52.530;9.760;2022-07-29T02:43:05;101193.44;;;13.86;63.88
58927;BME280;44712;52.530;9.760;2022-07-29T02:45:36;101193.44;;;13.86;64.09
58927;BME280;44712;52.530;9.760;2022-07-29T02:48:13;101199.72;;;13.88;63.74
58927;BME280;44712;52.530;9.760;2022-07-29T02:50:48;101203.28;;;13.92;63.48
58927;BME280;44712;52.530;9.760;2022-07-29T02:53:22;101207.88;;;13.88;64.13
58927;BME280;44712;52.530;9.760;2022-07-29T02:55:59;101191.56;;;13.88;64.03
58927;BME280;44712;52.530;9.760;2022-07-29T02:58:33;101198.88;;;13.86;64.42
58927;BME280;44712;52.530;9.760;2022-07-29T03:01:09;101196.19;;;13.84;64.25
58927;BME280;44712;52.530;9.760;2022-07-29T03:03:44;101195.28;;;13.82;64.39
58927;BME280;44712;52.530;9.760;2022-07-29T03:06:13;101189.81;;;13.84;64.67
58927;BME280;44712;52.530;9.760;2022-07-29T03:09:01;101183.56;;;13.80;64.70
58927;BME280;44712;52.530;9.760;2022-07-29T03:11:28;101186.25;;;13.82;64.83
58927;BME280;44712;52.530;9.760;2022-07-29T03:14:19;101181.75;;;13.79;64.65
58927;BME280;44712;52.530;9.760;2022-07-29T03:16:48;101189.00;;;13.80;65.24
58927;BME280;44712;52.530;9.760;2022-07-29T03:19:16;101181.72;;;13.81;65.29
58927;BME280;44712;52.530;9.760;2022-07-29T03:21:42;101183.53;;;13.82;65.20
58927;BME280;44712;52.530;9.760;2022-07-29T03:24:25;101182.53;;;13.86;64.88
58927;BME280;44712;52.530;9.760;2022-07-29T03:26:51;101182.53;;;13.86;65.19
58927;BME280;44712;52.530;9.760;2022-07-29T03:29:18;101183.47;;;13.85;64.85
58927;BME280;44712;52.530;9.760;2022-07-29T03:31:48;101192.53;;;13.84;65.51
58927;BME280;44712;52.530;9.760;2022-07-29T03:34:15;101190.75;;;13.84;65.74
58927;BME280;44712;52.530;9.760;2022-07-29T03:36:42;101194.34;;;13.85;65.33
58927;BME280;44712;52.530;9.760;2022-07-29T03:39:09;101187.09;;;13.84;65.25
58927;BME280;44712;52.530;9.760;2022-07-29T03:41:38;101186.19;;;13.85;65.73
58927;BME280;44712;52.530;9.760;2022-07-29T03:44:08;101186.19;;;13.85;65.59
58927;BME280;44712;52.530;9.760;2022-07-29T03:46:38;101186.19;;;13.85;66.04
58927;BME280;44712;52.530;9.760;2022-07-29T03:49:06;101190.66;;;13.87;65.99
58927;BME280;44712;52.530;9.760;2022-07-29T03:51:34;101188.78;;;13.89;65.67
58927;BME280;44712;52.530;9.760;2022-07-29T03:54:02;101186.09;;;13.88;66.12
58927;BME280;44712;52.530;9.760;2022-07-29T03:56:42;101185.22;;;13.87;65.81
58927;BME280;44712;52.530;9.760;2022-07-29T03:59:14;101187.91;;;13.89;66.30
58927;BME280;44712;52.530;9.760;2022-07-29T04:01:42;101193.28;;;13.92;66.19
58927;BME280;44712;52.530;9.760;2022-07-29T04:04:09;101193.34;;;13.89;66.51
58927;BME280;44712;52.530;9.760;2022-07-29T04:06:44;101198.78;;;13.89;66.84
58927;BME280;44712;52.530;9.760;2022-07-29T04:09:14;101188.88;;;13.86;66.79
58927;BME280;44712;52.530;9.760;2022-07-29T04:11:42;101190.63;;;13.89;66.70
58927;BME280;44712;52.530;9.760;2022-07-29T04:14:29;101200.53;;;13.93;66.52
58927;BME280;44712;52.530;9.760;2022-07-29T04:16:56;101196.03;;;13.90;66.95
58927;BME280;44712;52.530;9.760;2022-07-29T04:19:22;101196.88;;;13.94;66.41
58927;BME280;44712;52.530;9.760;2022-07-29T04:21:50;101193.25;;;13.95;66.92
58927;BME280;44712;52.530;9.760;2022-07-29T04:24:16;101196.81;;;13.97;67.00
58927;BME280;44712;52.530;9.760;2022-07-29T04:26:47;101204.09;;;13.97;67.08
58927;BME280;44712;52.530;9.760;2022-07-29T04:29:14;101198.69;;;13.95;66.71
58927;BME280;44712;52.530;9.760;2022-07-29T04:31:41;101202.25;;;13.97;67.03
58927;BME280;44712;52.530;9.760;2022-07-29T04:34:10;101199.50;;;13.99;67.18
58927;BME280;44712;52.530;9.760;2022-07-29T04:36:37;101206.75;;;14.00;67.10
58927;BME280;44712;52.530;9.760;2022-07-29T04:39:04;101202.22;;;14.00;67.50
58927;BME280;44712;52.530;9.760;2022-07-29T04:41:31;101201.22;;;14.03;66.99
58927;BME280;44712;52.530;9.760;2022-07-29T04:43:59;101199.47;;;14.02;67.38
58927;BME280;44712;52.530;9.760;2022-07-29T04:46:28;101201.22;;;14.03;67.00
58927;BME280;44712;52.530;9.760;2022-07-29T04:48:54;101202.22;;;14.00;67.19
58927;BME280;44712;52.530;9.760;2022-07-29T04:51:21;101203.09;;;14.01;67.75
58927;BME280;44712;52.530;9.760;2022-07-29T04:53:48;101196.72;;;14.03;68.05
58927;BME280;44712;52.530;9.760;2022-07-29T04:56:15;101205.72;;;14.05;68.30
58927;BME280;44712;52.530;9.760;2022-07-29T04:58:41;101205.69;;;14.09;68.28
58927;BME280;44712;52.530;9.760;2022-07-29T05:01:08;101196.63;;;14.06;67.86
58927;BME280;44712;52.530;9.760;2022-07-29T05:03:35;101196.59;;;14.10;68.40
58927;BME280;44712;52.530;9.760;2022-07-29T05:06:05;101196.59;;;14.10;68.27
58927;BME280;44712;52.530;9.760;2022-07-29T05:08:32;101211.97;;;14.11;68.30
58927;BME280;44712;52.530;9.760;2022-07-29T05:10:59;101199.28;;;14.11;68.78
58927;BME280;44712;52.530;9.760;2022-07-29T05:13:38;101201.97;;;14.13;68.63
58927;BME280;44712;52.530;9.760;2022-07-29T05:16:11;101197.38;;;14.15;69.20
58927;BME280;44712;52.530;9.760;2022-07-29T05:18:38;101199.09;;;14.19;69.30
58927;BME280;44712;52.530;9.760;2022-07-29T05:21:05;101192.69;;;14.23;68.99
58927;BME280;44712;52.530;9.760;2022-07-29T05:23:32;101197.06;;;14.30;68.11
58927;BME280;44712;52.530;9.760;2022-07-29T05:25:58;101194.38;;;14.29;68.45
58927;BME280;44712;52.530;9.760;2022-07-29T05:28:25;101200.63;;;14.34;68.62
58927;BME280;44712;52.530;9.760;2022-07-29T05:30:52;101189.75;;;14.34;68.38
58927;BME280;44712;52.530;9.760;2022-07-29T05:33:18;101187.78;;;14.40;68.42
58927;BME280;44712;52.530;9.760;2022-07-29T05:36:05;101191.44;;;14.39;68.93
58927;BME280;44712;52.530;9.760;2022-07-29T05:38:37;101197.56;;;14.49;69.14
58927;BME280;44712;52.530;9.760;2022-07-29T05:41:04;101193.66;;;14.61;68.25
58927;BME280;44712;52.530;9.760;2022-07-29T05:43:32;101193.66;;;14.61;69.39
58927;BME280;44712;52.530;9.760;2022-07-29T05:45:58;101198.19;;;14.62;69.29
58927;BME280;44712;52.530;9.760;2022-07-29T05:48:25;101200.78;;;14.68;69.22
58927;BME280;44712;52.530;9.760;2022-07-29T05:50:52;101202.53;;;14.72;69.01
58927;BME280;44712;52.530;9.760;2022-07-29T05:53:19;101191.47;;;14.79;69.04
58927;BME280;44712;52.530;9.760;2022-07-29T05:55:47;101200.53;;;14.81;68.97
58927;BME280;44712;52.530;9.760;2022-07-29T05:58:14;101198.59;;;14.86;68.61
58927;BME280;44712;52.530;9.760;2022-07-29T06:00:41;101203.84;;;14.95;68.68
58927;BME280;44712;52.530;9.760;2022-07-29T06:03:08;101207.41;;;14.97;68.93
58927;BME280;44712;52.530;9.760;2022-07-29T06:05:35;101200.09;;;14.99;69.10
58927;BME280;44712;52.530;9.760;2022-07-29T06:08:02;101196.38;;;15.03;68.73
58927;BME280;44712;52.530;9.760;2022-07-29T06:10:32;101199.94;;;15.05;68.23
58927;BME280;44712;52.530;9.760;2022-07-29T06:12:59;101194.34;;;15.12;68.57
58927;BME280;44712;52.530;9.760;2022-07-29T06:15:25;101193.34;;;15.16;68.84
58927;BME280;44712;52.530;9.760;2022-07-29T06:17:52;101192.31;;;15.20;69.12
58927;BME280;44712;52.530;9.760;2022-07-29T06:20:26;101198.59;;;15.23;68.53
58927;BME280;44712;52.530;9.760;2022-07-29T06:22:58;101193.03;;;15.28;68.83
58927;BME280;44712;52.530;9.760;2022-07-29T06:25:25;101188.13;;;15.43;68.75
58927;BME280;44712;52.530;9.760;2022-07-29T06:27:52;101184.47;;;15.44;68.35
58927;BME280;44712;52.530;9.760;2022-07-29T06:30:19;101186.94;;;15.53;68.07
58927;BME280;44712;52.530;9.760;2022-07-29T06:32:45;101182.25;;;15.58;68.11
58927;BME280;44712;52.530;9.760;2022-07-29T06:35:12;101184.81;;;15.64;67.71
58927;BME280;44712;52.530;9.760;2022-07-29T06:37:59;101177.41;;;15.69;68.07
58927;BME280;44712;52.530;9.760;2022-07-29T06:40:26;101175.13;;;15.87;66.78
58927;BME280;44712;52.530;9.760;2022-07-29T06:43:11;101174.16;;;15.89;67.53
58927;BME280;44712;52.530;9.760;2022-07-29T06:45:38;101177.69;;;15.93;67.67
58927;BME280;44712;52.530;9.760;2022-07-29T06:48:10;101177.34;;;16.05;67.33
58927;BME280;44712;52.530;9.760;2022-07-29T06:50:37;101183.56;;;16.11;67.49
58927;BME280;44712;52.530;9.760;2022-07-29T06:53:03;101180.41;;;16.26;65.46
58927;BME280;44712;52.530;9.760;2022-07-29T06:55:30;101178.44;;;16.30;66.01
58927;BME280;44712;52.530;9.760;2022-07-29T06:57:57;101176.44;;;16.36;65.79
58927;BME280;44712;52.530;9.760;2022-07-29T07:00:25;101178.06;;;16.44;65.44
58927;BME280;44712;52.530;9.760;2022-07-29T07:02:51;101178.66;;;16.53;65.88
58927;BME280;44712;52.530;9.760;2022-07-29T07:05:18;101175.47;;;16.67;65.43
58927;BME280;44712;52.530;9.760;2022-07-29T07:07:45;101175.19;;;16.77;65.11
58927;BME280;44712;52.530;9.760;2022-07-29T07:10:11;101170.38;;;16.85;64.05
58927;BME280;44712;52.530;9.760;2022-07-29T07:12:38;101169.28;;;16.92;64.70
58927;BME280;44712;52.530;9.760;2022-07-29T07:15:05;101174.44;;;17.01;64.39
58927;BME280;44712;52.530;9.760;2022-07-29T07:17:32;101171.25;;;17.15;63.76
58927;BME280;44712;52.530;9.760;2022-07-29T07:20:02;101181.75;;;17.29;63.61
58927;BME280;44712;52.530;9.760;2022-07-29T07:22:29;101173.09;;;17.42;63.74
58927;BME280;44712;52.530;9.760;2022-07-29T07:24:57;101172.53;;;17.57;62.91
58927;BME280;44712;52.530;9.760;2022-07-29T07:27:24;101174.41;;;17.82;63.11
58927;BME280;44712;52.530;9.760;2022-07-29T07:29:51;101176.41;;;18.03;61.31
58927;BME280;44712;52.530;9.760;2022-07-29T07:32:18;101183.22;;;18.17;59.81
58927;BME280;44712;52.530;9.760;2022-07-29T07:34:44;101176.72;;;18.19;59.61
58927;BME280;44712;52.530;9.760;2022-07-29T07:37:11;101179.19;;;18.27;58.14
58927;BME280;44712;52.530;9.760;2022-07-29T07:39:38;101183.34;;;18.37;58.06
58927;BME280;44712;52.530;9.760;2022-07-29T07:42:04;101185.31;;;18.57;57.63
58927;BME280;44712;52.530;9.760;2022-07-29T07:44:31;101180.84;;;18.79;57.89
58927;BME280;44712;52.530;9.760;2022-07-29T07:47:12;101180.59;;;19.29;56.71
58927;BME280;44712;52.530;9.760;2022-07-29T07:49:41;101180.44;;;19.54;56.25
58927;BME280;44712;52.530;9.760;2022-07-29T07:52:10;101188.84;;;19.72;55.72
58927;BME280;44712;52.530;9.760;2022-07-29T07:54:37;101183.97;;;19.79;54.24
58927;BME280;44712;52.530;9.760;2022-07-29T07:57:06;101190.63;;;19.73;53.47
58927;BME280;44712;52.530;9.760;2022-07-29T07:59:33;101183.81;;;19.61;53.72
58927;BME280;44712;52.530;9.760;2022-07-29T08:01:59;101186.31;;;19.67;53.83
58927;BME280;44712;52.530;9.760;2022-07-29T08:04:27;101187.06;;;19.71;54.28
58927;BME280;44712;52.530;9.760;2022-07-29T08:06:56;101183.97;;;19.79;54.57
58927;BME280;44712;52.530;9.760;2022-07-29T08:09:24;101182.13;;;19.79;55.05
58927;BME280;44712;52.530;9.760;2022-07-29T08:11:57;101174.66;;;19.83;54.38
58927;BME280;44712;52.530;9.760;2022-07-29T08:14:24;101172.91;;;19.82;54.63
58927;BME280;44712;52.530;9.760;2022-07-29T08:16:50;101174.84;;;19.78;54.57
58927;BME280;44712;52.530;9.760;2022-07-29T08:19:18;101172.97;;;19.79;54.70
58927;BME280;44712;52.530;9.760;2022-07-29T08:21:44;101173.78;;;19.82;55.26
58927;BME280;44712;52.530;9.760;2022-07-29T08:24:11;101177.41;;;19.83;55.15
58927;BME280;44712;52.530;9.760;2022-07-29T08:26:56;101162.00;;;19.79;55.12
58927;BME280;44712;52.530;9.760;2022-07-29T08:29:23;101171.22;;;19.78;54.96
58927;BME280;44712;52.530;9.760;2022-07-29T08:31:50;101165.59;;;19.81;54.20
58927;BME280;44712;52.530;9.760;2022-07-29T08:34:17;101175.16;;;19.70;53.54
58927;BME280;44712;52.530;9.760;2022-07-29T08:36:43;101176.97;;;19.71;53.72
58927;BME280;44712;52.530;9.760;2022-07-29T08:39:17;101176.97;;;19.71;54.08
58927;BME280;44712;52.530;9.760;2022-07-29T08:41:43;101182.31;;;19.74;54.65
58927;BME280;44712;52.530;9.760;2022-07-29T08:44:23;101181.22;;;19.79;54.24
58927;BME280;44712;52.530;9.760;2022-07-29T08:46:56;101178.44;;;19.80;53.09
58927;BME280;44712;52.530;9.760;2022-07-29T08:49:23;101176.59;;;19.81;52.97
58927;BME280;44712;52.530;9.760;2022-07-29T08:51:50;101169.50;;;19.75;53.21
58927;BME280;44712;52.530;9.760;2022-07-29T08:54:18;101172.34;;;19.72;53.92
58927;BME280;44712;52.530;9.760;2022-07-29T08:56:48;101169.41;;;19.77;53.29
58927;BME280;44712;52.530;9.760;2022-07-29T08:59:19;101171.22;;;19.78;54.04
58927;BME280;44712;52.530;9.760;2022-07-29T09:01:48;101168.59;;;19.74;53.26
58927;BME280;44712;52.530;9.760;2022-07-29T09:04:18;101180.41;;;19.77;53.36
58927;BME280;44712;52.530;9.760;2022-07-29T09:06:48;101171.22;;;19.78;53.04
58927;BME280;44712;52.530;9.760;2022-07-29T09:09:17;101173.78;;;19.82;53.87
58927;BME280;44712;52.530;9.760;2022-07-29T09:11:44;101174.66;;;19.83;53.96
58927;BME280;44712;52.530;9.760;2022-07-29T09:14:12;101168.91;;;19.89;54.19
58927;BME280;44712;52.530;9.760;2022-07-29T09:16:49;101164.63;;;20.02;54.25
58927;BME280;44712;52.530;9.760;2022-07-29T09:19:32;101160.66;;;20.10;53.74
58927;BME280;44712;52.530;9.760;2022-07-29T09:22:03;101157.41;;;20.20;53.43
58927;BME280;44712;52.530;9.760;2022-07-29T09:24:37;101159.50;;;20.34;52.59
58927;BME280;44712;52.530;9.760;2022-07-29T09:27:27;101152.81;;;20.40;52.56
58927;BME280;44712;52.530;9.760;2022-07-29T09:29:59;101152.44;;;20.48;52.03
58927;BME280;44712;52.530;9.760;2022-07-29T09:32:27;101151.16;;;20.55;52.80
58927;BME280;44712;52.530;9.760;2022-07-29T09:35:21;101148.13;;;20.61;51.62
58927;BME280;44712;52.530;9.760;2022-07-29T09:37:48;101152.25;;;20.71;52.22
58927;BME280;44712;52.530;9.760;2022-07-29T09:40:20;101146.31;;;20.81;52.20
58927;BME280;44712;52.530;9.760;2022-07-29T09:42:48;101141.03;;;20.95;51.80
58927;BME280;44712;52.530;9.760;2022-07-29T09:45:30;101143.22;;;21.06;50.97
58927;BME280;44712;52.530;9.760;2022-07-29T09:47:57;101135.97;;;21.22;50.37
58927;BME280;44712;52.530;9.760;2022-07-29T09:50:40;101140.91;;;21.33;49.84
58927;BME280;44712;52.530;9.760;2022-07-29T09:53:08;101134.53;;;21.50;48.49
58927;BME280;44712;52.530;9.760;2022-07-29T09:58:19;101128.47;;;21.79;48.93
58927;BME280;44712;52.530;9.760;2022-07-29T10:00:47;101126.66;;;21.95;48.52
58927;BME280;44712;52.530;9.760;2022-07-29T10:03:15;101132.66;;;22.03;47.44
58927;BME280;44712;52.530;9.760;2022-07-29T10:05:43;101130.59;;;22.07;48.10
58927;BME280;44712;52.530;9.760;2022-07-29T10:08:11;101137.31;;;22.19;48.95
58927;BME280;44712;52.530;9.760;2022-07-29T10:10:40;101135.53;;;22.18;47.12
58927;BME280;44712;52.530;9.760;2022-07-29T10:13:12;101128.81;;;22.23;46.61
58927;BME280;44712;52.530;9.760;2022-07-29T10:15:43;101130.00;;;22.18;47.01
58927;BME280;44712;52.530;9.760;2022-07-29T10:18:13;101136.00;;;22.26;47.67
58927;BME280;44712;52.530;9.760;2022-07-29T10:20:40;101132.09;;;22.30;48.00
58927;BME280;44712;52.530;9.760;2022-07-29T10:23:06;101134.53;;;22.36;46.68
58927;BME280;44712;52.530;9.760;2022-07-29T10:25:33;101132.50;;;22.40;47.58
58927;BME280;44712;52.530;9.760;2022-07-29T10:28:00;101134.38;;;22.39;46.45
58927;BME280;44712;52.530;9.760;2022-07-29T10:30:27;101133.22;;;22.44;46.79
58927;BME280;44712;52.530;9.760;2022-07-29T10:35:33;101128.16;;;22.52;45.29
58927;BME280;44712;52.530;9.760;2022-07-29T10:44:14;101123.34;;;22.71;45.24
58927;BME280;44712;52.530;9.760;2022-07-29T10:46:46;101124.34;;;22.70;45.05
58927;BME280;44712;52.530;9.760;2022-07-29T10:49:15;101117.81;;;22.71;45.31
58927;BME280;44712;52.530;9.760;2022-07-29T11:02:44;101111.63;;;22.84;44.86
58927;BME280;44712;52.530;9.760;2022-07-29T11:05:17;101106.63;;;22.90;45.46
58927;BME280;44712;52.530;9.760;2022-07-29T11:10:47;101099.66;;;22.99;45.13
58927;BME280;44712;52.530;9.760;2022-07-29T11:16:09;101105.00;;;23.02;44.07
58927;BME280;44712;52.530;9.760;2022-07-29T11:21:41;101102.84;;;23.07;44.74
58927;BME280;44712;52.530;9.760;2022-07-29T11:24:30;101105.53;;;23.09;44.12
58927;BME280;44712;52.530;9.760;2022-07-29T11:27:11;101102.69;;;23.11;45.90
58927;BME280;44712;52.530;9.760;2022-07-29T11:29:47;101099.75;;;23.14;45.44
58927;BME280;44712;52.530;9.760;2022-07-29T11:32:16;101105.09;;;23.17;44.61
58927;BME280;44712;52.530;9.760;2022-07-29T11:35:23;101101.09;;;23.22;45.02
58927;BME280;44712;52.530;9.760;2022-07-29T11:38:27;101109.69;;;23.32;45.35
58927;BME280;44712;52.530;9.760;2022-07-29T11:41:23;101104.78;;;23.37;45.07
58927;BME280;44712;52.530;9.760;2022-07-29T11:43:59;101102.81;;;23.39;44.10
58927;BME280;44712;52.530;9.760;2022-07-29T11:46:47;101096.19;;;23.42;44.12
58927;BME280;44712;52.530;9.760;2022-07-29T11:49:44;101096.91;;;23.46;44.34
58927;BME280;44712;52.530;9.760;2022-07-29T11:52:13;101097.13;;;23.43;44.16
58927;BME280;44712;52.530;9.760;2022-07-29T11:54:48;101098.59;;;23.48;45.14
58927;BME280;44712;52.530;9.760;2022-07-29T11:57:26;101101.56;;;23.45;43.62
58927;BME280;44712;52.530;9.760;2022-07-29T12:00:06;101092.97;;;23.50;44.05
58927;BME280;44712;52.530;9.760;2022-07-29T12:02:42;101087.97;;;23.56;43.33
58927;BME280;44712;52.530;9.760;2022-07-29T12:05:14;101094.00;;;23.63;43.22
58927;BME280;44712;52.530;9.760;2022-07-29T12:08:21;101091.97;;;23.81;42.72
58927;BME280;44712;52.530;9.760;2022-07-29T12:10:49;101088.78;;;23.87;43.63
58927;BME280;44712;52.530;9.760;2022-07-29T12:13:19;101085.38;;;23.98;42.47
58927;BME280;44712;52.530;9.760;2022-07-29T12:15:55;101082.81;;;24.10;41.83
58927;BME280;44712;52.530;9.760;2022-07-29T12:18:25;101075.72;;;24.20;42.06
58927;BME280;44712;52.530;9.760;2022-07-29T12:20:57;101084.19;;;24.31;42.36
58927;BME280;44712;52.530;9.760;2022-07-29T12:23:30;101079.03;;;24.39;41.48
58927;BME280;44712;52.530;9.760;2022-07-29T12:26:04;101082.66;;;24.54;41.25
58927;BME280;44712;52.530;9.760;2022-07-29T12:28:37;101070.50;;;24.71;40.73
58927;BME280;44712;52.530;9.760;2022-07-29T12:31:04;101066.34;;;24.79;41.43
58927;BME280;44712;52.530;9.760;2022-07-29T12:33:34;101060.09;;;24.89;43.16
58927;BME280;44712;52.530;9.760;2022-07-29T12:36:02;101058.72;;;25.10;42.27
58927;BME280;44712;52.530;9.760;2022-07-29T12:38:35;101056.59;;;25.40;40.85
58927;BME280;44712;52.530;9.760;2022-07-29T12:41:02;101068.81;;;25.64;40.30
58927;BME280;44712;52.530;9.760;2022-07-29T12:43:30;101066.94;;;25.64;39.79
58927;BME280;44712;52.530;9.760;2022-07-29T12:45:57;101058.94;;;25.60;39.82
58927;BME280;44712;52.530;9.760;2022-07-29T12:48:37;101063.03;;;25.54;38.16
58927;BME280;44712;52.530;9.760;2022-07-29T12:51:06;101052.19;;;25.51;38.74
58927;BME280;44712;52.530;9.760;2022-07-29T12:53:34;101053.63;;;25.56;38.60
58927;BME280;44712;52.530;9.760;2022-07-29T12:56:02;101057.72;;;25.51;39.38
58927;BME280;44712;52.530;9.760;2022-07-29T12:58:50;101065.00;;;25.52;39.64
58927;BME280;44712;52.530;9.760;2022-07-29T13:01:18;101055.19;;;25.33;40.16
58927;BME280;44712;52.530;9.760;2022-07-29T13:03:57;101059.66;;;25.36;38.91
58927;BME280;44712;52.530;9.760;2022-07-29T13:06:37;101050.25;;;25.38;39.67
58927;BME280;44712;52.530;9.760;2022-07-29T13:09:17;101049.50;;;25.36;39.51
58927;BME280;44712;52.530;9.760;2022-07-29T13:14:33;101051.28;;;25.37;39.42
58927;BME280;44712;52.530;9.760;2022-07-29T13:17:19;101047.91;;;25.32;38.81
58927;BME280;44712;52.530;9.760;2022-07-29T13:20:05;101035.47;;;25.25;39.09
58927;BME280;44712;52.530;9.760;2022-07-29T13:22:34;101045.00;;;25.21;38.83
58927;BME280;44712;52.530;9.760;2022-07-29T13:25:02;101043.88;;;25.23;39.75
58927;BME280;44712;52.530;9.760;2022-07-29T13:27:36;101041.22;;;25.22;39.01
58927;BME280;44712;52.530;9.760;2022-07-29T13:30:06;101044.00;;;25.22;39.28
58927;BME280;44712;52.530;9.760;2022-07-29T13:32:33;101042.00;;;25.24;38.41
58927;BME280;44712;52.530;9.760;2022-07-29T13:35:03;101039.22;;;25.24;38.42
58927;BME280;44712;52.530;9.760;2022-07-29T13:37:32;101035.91;;;25.19;38.83
58927;BME280;44712;52.530;9.760;2022-07-29T13:40:02;101035.81;;;25.20;38.79
58927;BME280;44712;52.530;9.760;2022-07-29T13:42:32;101037.78;;;25.18;39.13
58927;BME280;44712;52.530;9.760;2022-07-29T13:44:59;101030.16;;;25.22;39.31
58927;BME280;44712;52.530;9.760;2022-07-29T13:47:26;101031.94;;;25.23;38.77
58927;BME280;44712;52.530;9.760;2022-07-29T13:50:01;101033.91;;;25.21;38.92
58927;BME280;44712;52.530;9.760;2022-07-29T13:52:31;101029.72;;;25.28;38.53
58927;BME280;44712;52.530;9.760;2022-07-29T13:54:57;101023.06;;;25.31;39.04
58927;BME280;44712;52.530;9.760;2022-07-29T13:57:24;101025.56;;;25.35;39.56